Time;durP1;ratioP1;P1;durP2;ratioP2;P2;SDS_P1;SDS_P2;PMS_P1;PMS_P2;Temp;Humidity;BMP_temperature;BMP_pressure;BME280_temperature;BME280_humidity;BME280_pressure;Samples;Min_cycle;Max_cycle;Signal;HPM_P1;HPM_P2
2021/12/12 00:01:19;;;;;;;32.95;14.13;;;;;;;-2.18;97.63;100808.72;5047852;28;20112;-69
2021/12/12 00:03:48;;;;;;;30.15;13.95;;;;;;;-2.17;97.19;100804.44;5051041;28;20198;-69
2021/12/12 00:06:18;;;;;;;28.75;13.95;;;;;;;-2.17;96.85;100813.00;5042151;28;20104;-68
2021/12/12 00:08:47;;;;;;;31.30;15.43;;;;;;;-2.23;96.82;100803.59;5047333;28;20401;-70
2021/12/12 00:11:15;;;;;;;31.38;16.70;;;;;;;-2.23;96.75;100808.72;5047050;28;20043;-69
2021/12/12 00:13:53;;;;;;;30.17;14.80;;;;;;;-2.20;96.93;100806.16;5055703;28;20654;-69
2021/12/12 00:16:18;;;;;;;30.88;14.52;;;;;;;-2.08;97.04;100817.19;5052934;28;20060;-70
2021/12/12 00:18:44;;;;;;;31.30;15.45;;;;;;;-1.98;97.03;100819.69;5049061;28;20379;-68
2021/12/12 00:21:12;;;;;;;29.02;15.13;;;;;;;-1.88;96.77;100819.66;5050749;28;20041;-68
2021/12/12 00:23:38;;;;;;;28.60;15.40;;;;;;;-1.76;96.04;100819.56;5058574;28;20033;-70
2021/12/12 00:26:04;;;;;;;31.55;14.60;;;;;;;-1.75;95.89;100823.81;5062317;28;20099;-68
2021/12/12 00:28:30;;;;;;;30.15;15.18;;;;;;;-1.78;95.43;100829.84;5046437;28;20025;-69
2021/12/12 00:31:03;;;;;;;25.88;14.52;;;;;;;-1.81;95.61;100829.88;5047721;28;20159;-71
2021/12/12 00:33:28;;;;;;;29.35;15.80;;;;;;;-1.79;95.75;100837.56;5047756;28;20021;-69
2021/12/12 00:35:54;;;;;;;31.10;15.65;;;;;;;-1.74;96.21;100838.41;5046952;28;20094;-69
2021/12/12 00:38:26;;;;;;;34.60;15.13;;;;;;;-1.70;95.68;100837.50;5046858;28;20494;-69
2021/12/12 00:40:55;;;;;;;33.55;16.73;;;;;;;-1.70;95.36;100842.66;5041074;28;20056;-72
2021/12/12 00:43:27;;;;;;;33.28;16.20;;;;;;;-1.73;95.35;100838.38;5042206;28;20033;-69
2021/12/12 00:45:57;;;;;;;31.40;16.27;;;;;;;-1.73;95.39;100846.09;5045478;28;20118;-69
2021/12/12 00:48:23;;;;;;;35.10;17.73;;;;;;;-1.66;95.23;100851.19;5042966;28;20031;-69
2021/12/12 00:50:50;;;;;;;31.42;16.88;;;;;;;-1.64;95.41;100859.72;5046140;28;20040;-70
2021/12/12 00:53:16;;;;;;;35.30;17.02;;;;;;;-1.64;95.17;100863.16;5045703;28;20029;-69
2021/12/12 00:55:44;;;;;;;33.33;16.55;;;;;;;-1.63;95.02;100879.41;5043264;28;20060;-67
2021/12/12 00:58:14;;;;;;;35.08;17.40;;;;;;;-1.61;95.22;100888.00;5046341;28;20036;-69
2021/12/12 01:00:50;;;;;;;35.55;18.20;;;;;;;-1.61;95.31;100893.13;5040463;28;20120;-68
2021/12/12 01:03:23;;;;;;;35.03;17.27;;;;;;;-1.59;95.44;100891.41;5038796;28;20017;-68
2021/12/12 01:05:51;;;;;;;35.65;18.08;;;;;;;-1.60;95.42;100890.53;5046117;28;20041;-69
2021/12/12 01:08:16;;;;;;;37.75;17.13;;;;;;;-1.57;95.60;100889.66;5047009;28;20036;-69
2021/12/12 01:10:56;;;;;;;37.40;17.65;;;;;;;-1.60;95.31;100889.69;5039570;28;20284;-69
2021/12/12 01:13:22;;;;;;;39.53;17.50;;;;;;;-1.66;95.58;100897.47;5044925;28;20150;-68
2021/12/12 01:15:53;;;;;;;36.95;19.08;;;;;;;-1.66;96.01;100892.31;5043854;28;20223;-71
2021/12/12 01:18:26;;;;;;;39.10;20.27;;;;;;;-1.68;95.98;100884.59;5038577;28;20420;-69
2021/12/12 01:21:15;;;;;;;32.30;18.05;;;;;;;-1.66;96.13;100888.03;5041651;28;20068;-72
2021/12/12 01:23:46;;;;;;;38.70;19.58;;;;;;;-1.68;96.22;100882.03;5046323;28;20033;-70
2021/12/12 01:26:12;;;;;;;36.00;18.27;;;;;;;-1.72;95.96;100882.91;5039002;28;20037;-71
2021/12/12 01:28:42;;;;;;;41.55;19.75;;;;;;;-1.77;96.15;100888.09;5038034;28;20558;-68
2021/12/12 01:31:14;;;;;;;34.88;17.75;;;;;;;-1.82;96.44;100886.41;5042960;28;20025;-67
2021/12/12 01:33:42;;;;;;;37.67;19.00;;;;;;;-1.84;96.31;100885.59;5039960;28;20344;-70
2021/12/12 01:36:12;;;;;;;36.80;19.23;;;;;;;-1.86;96.49;100883.00;5038269;28;20087;-69
2021/12/12 01:38:52;;;;;;;42.50;21.05;;;;;;;-1.82;96.92;100878.69;5039362;28;20036;-70
2021/12/12 01:41:34;;;;;;;40.80;20.10;;;;;;;-1.82;97.25;100871.00;5035520;28;20057;-69
2021/12/12 01:44:16;;;;;;;39.38;20.80;;;;;;;-1.86;96.89;100874.44;5040409;28;20052;-70
2021/12/12 01:46:46;;;;;;;37.67;19.48;;;;;;;-1.92;96.71;100867.66;5037393;28;20144;-68
2021/12/12 01:49:22;;;;;;;42.60;19.05;;;;;;;-1.95;96.98;100868.50;5044145;28;20029;-69
2021/12/12 01:51:48;;;;;;;37.50;19.48;;;;;;;-1.95;97.31;100867.66;5041457;28;20122;-68
2021/12/12 01:54:18;;;;;;;44.72;21.75;;;;;;;-1.93;97.44;100871.06;5034450;28;20160;-69
2021/12/12 01:56:53;;;;;;;47.75;22.95;;;;;;;-1.85;97.78;100865.91;5037903;28;20344;-68
2021/12/12 01:59:22;;;;;;;48.67;22.52;;;;;;;-1.81;97.71;100873.56;5044669;28;20025;-69
2021/12/12 02:01:51;;;;;;;50.33;21.98;;;;;;;-1.76;97.57;100878.66;5045855;28;20032;-70
2021/12/12 02:04:23;;;;;;;45.42;23.33;;;;;;;-1.74;97.60;100870.09;5046228;28;20473;-69
2021/12/12 02:06:51;;;;;;;47.10;22.67;;;;;;;-1.70;97.54;100881.22;5044155;28;20032;-69
2021/12/12 02:09:19;;;;;;;47.17;22.10;;;;;;;-1.72;97.47;100881.19;5046792;28;20032;-69
2021/12/12 02:11:47;;;;;;;41.17;20.95;;;;;;;-1.69;97.42;100882.06;5041470;28;20120;-71
2021/12/12 02:14:16;;;;;;;46.15;21.15;;;;;;;-1.65;97.39;100881.16;5040278;28;20465;-69
2021/12/12 02:16:49;;;;;;;48.55;22.30;;;;;;;-1.64;97.03;100876.00;5040163;28;20033;-70
2021/12/12 02:19:16;;;;;;;43.25;21.35;;;;;;;-1.64;97.27;100882.88;5039844;28;20067;-71
2021/12/12 02:35:44;;;;;;;49.97;22.13;;;;;;;-1.27;96.29;100902.28;5037351;28;20058;-68
2021/12/12 02:38:13;;;;;;;46.85;21.52;;;;;;;-1.07;95.88;100896.13;5046159;28;20178;-69
2021/12/12 02:40:44;;;;;;;41.38;20.10;;;;;;;-0.89;95.25;100893.38;5044705;28;20677;-68
2021/12/12 02:43:13;;;;;;;44.28;19.70;;;;;;;-0.81;94.75;100890.72;5047732;28;20029;-68
2021/12/12 02:45:39;;;;;;;40.35;19.55;;;;;;;-0.75;94.12;100888.06;5043892;28;20021;-69
2021/12/12 02:48:07;;;;;;;38.78;19.27;;;;;;;-0.67;94.19;100890.53;5043545;28;20068;-70
2021/12/12 02:50:43;;;;;;;38.55;19.45;;;;;;;-0.59;94.21;100891.34;5057869;23;20072;-90
2021/12/12 02:53:20;;;;;;;43.08;19.58;;;;;;;-0.46;94.23;100895.47;5056732;28;20037;-91
2021/12/12 02:55:54;;;;;;;41.72;20.08;;;;;;;-0.42;94.04;100884.25;5052748;28;20434;-90
2021/12/12 02:58:24;;;;;;;43.42;20.38;;;;;;;-0.37;93.91;100882.47;5042429;28;20576;-91
2021/12/12 03:01:14;;;;;;;37.22;19.42;;;;;;;-0.30;93.84;100875.50;5041997;28;20033;-91
2021/12/12 03:03:42;;;;;;;44.67;19.05;;;;;;;-0.23;93.72;100884.00;5052886;28;20032;-90
2021/12/12 03:06:14;;;;;;;34.85;18.70;;;;;;;-0.19;94.07;100893.41;5057156;28;20162;-90
2021/12/12 03:09:04;;;;;;;33.70;18.25;;;;;;;-0.13;93.99;100888.19;5056213;28;20491;-91
2021/12/12 03:11:33;;;;;;;31.60;17.30;;;;;;;-0.18;93.97;100877.94;5027630;28;20144;-90
2021/12/12 03:13:59;;;;;;;38.38;17.60;;;;;;;-0.20;94.21;100883.97;5055785;28;20056;-90
2021/12/12 03:16:25;;;;;;;34.67;18.55;;;;;;;-0.26;94.50;100879.75;5054296;28;20040;-90
2021/12/12 03:18:56;;;;;;;35.13;18.23;;;;;;;-0.27;94.81;100883.19;5061439;28;20037;-90
2021/12/12 03:21:45;;;;;;;;;;;;;;;;;;;;;
2021/12/12 03:24:25;;;;;;;32.60;16.63;;;;;;;-0.31;95.29;100897.00;5053798;28;20583;-89
2021/12/12 03:26:59;;;;;;;31.85;16.50;;;;;;;-0.36;95.33;100891.91;5058432;28;20041;-91
2021/12/12 03:29:27;;;;;;;31.85;16.98;;;;;;;-0.35;95.46;100890.19;5054221;28;20041;-89
2021/12/12 03:31:57;;;;;;;38.25;17.45;;;;;;;-0.35;95.58;100897.91;5053595;28;20087;-90
2021/12/12 03:34:27;;;;;;;37.70;17.77;;;;;;;-0.36;95.41;100902.22;5054037;28;20039;-90
2021/12/12 03:36:53;;;;;;;40.10;19.13;;;;;;;-0.38;95.25;100900.50;5054482;28;20086;-90
2021/12/12 03:39:25;;;;;;;33.17;17.13;;;;;;;-0.40;95.43;100902.28;5057510;28;20109;-91
2021/12/12 03:42:39;;;;;;;36.15;17.58;;;;;;;-0.50;95.55;100898.94;5062302;28;20059;-90
2021/12/12 03:45:23;;;;;;;31.70;16.58;;;;;;;-0.50;95.74;100914.41;5063154;28;20099;-90
2021/12/12 03:54:27;;;;;;;37.33;17.98;;;;;;;-0.58;96.04;100909.34;5025534;28;20040;-90
2021/12/12 03:57:14;;;;;;;35.78;18.05;;;;;;;-0.62;96.01;100911.97;5034088;28;20430;-89
2021/12/12 03:59:48;;;;;;;40.90;18.65;;;;;;;-0.63;95.84;100908.53;5033631;28;20040;-90
2021/12/12 04:02:16;;;;;;;42.03;18.80;;;;;;;-0.61;96.13;100908.53;5039683;28;20091;-90
2021/12/12 04:04:47;;;;;;;37.60;19.20;;;;;;;-0.65;96.37;100901.69;5053615;28;20067;-91
2021/12/12 04:07:25;;;;;;;39.47;19.50;;;;;;;-0.66;96.26;100902.56;5055715;28;20114;-90
2021/12/12 04:10:06;;;;;;;34.00;18.45;;;;;;;-0.70;96.21;100904.31;5054839;28;20035;-89
2021/12/12 04:12:49;;;;;;;38.20;20.17;;;;;;;-0.71;96.40;100917.19;5053147;28;20036;-90
2021/12/12 04:18:28;;;;;;;34.83;18.25;;;;;;;-0.77;96.32;100915.56;4950014;28;20049;-90
2021/12/12 04:20:58;;;;;;;40.20;19.75;;;;;;;-0.80;96.52;100924.16;4956596;28;20117;-89
2021/12/12 04:23:31;;;;;;;40.45;19.90;;;;;;;-0.83;96.50;100929.34;4955817;28;20042;-90
2021/12/12 04:26:20;;;;;;;36.80;18.98;;;;;;;-0.84;96.34;100931.94;4965075;28;20046;-89
2021/12/12 04:29:03;;;;;;;;;;;;;;;-0.86;96.83;100937.09;4943520;29;20122;-91
2021/12/12 04:31:34;;;;;;;33.15;17.50;;;;;;;-0.85;97.36;100937.97;4953014;28;19918;-90
2021/12/12 04:34:09;;;;;;;;;;;;;;;;;;;;;
2021/12/12 04:37:04;;;;;;;37.30;18.05;;;;;;;-0.84;96.94;100935.34;4970768;28;20521;-90
2021/12/12 04:39:38;;;;;;;36.53;17.40;;;;;;;-0.86;96.72;100931.94;4945707;28;20109;-90
2021/12/12 04:42:36;;;;;;;40.58;17.00;;;;;;;-0.82;97.19;100933.59;4941653;28;20393;-91
2021/12/12 04:45:30;;;;;;;38.70;17.10;;;;;;;-0.83;97.18;100931.91;4944337;28;20128;-91
2021/12/12 04:51:12;;;;;;;37.38;17.27;;;;;;;-0.94;96.78;100931.16;4943801;28;20054;-91
2021/12/12 04:53:50;;;;;;;35.60;17.63;;;;;;;-1.00;96.76;100924.38;4964179;28;20047;-89
2021/12/12 04:56:19;;;;;;;39.35;18.10;;;;;;;-1.01;97.18;100937.22;5039702;28;20041;-90
2021/12/12 04:59:00;;;;;;;37.15;17.73;;;;;;;-1.01;97.11;100932.94;5051106;28;20037;-89
2021/12/12 05:02:02;;;;;;;34.95;17.38;;;;;;;-0.94;97.59;100938.03;5052861;28;20105;-92
2021/12/12 05:04:49;;;;;;;41.80;17.75;;;;;;;-0.96;97.34;100935.47;5020449;28;20055;-89
2021/12/12 05:07:24;;;;;;;43.67;18.80;;;;;;;-0.94;97.51;100936.31;5050592;28;20128;-90
2021/12/12 05:09:58;;;;;;;36.05;19.15;;;;;;;-0.91;97.74;100932.84;5045472;28;20186;-91
2021/12/12 05:12:40;;;;;;;35.55;17.00;;;;;;;-0.88;97.48;100936.25;5052544;28;20465;-91
2021/12/12 05:15:16;;;;;;;34.90;16.70;;;;;;;-0.87;97.09;100943.09;5027925;28;20120;-91
2021/12/12 05:18:11;;;;;;;40.58;18.05;;;;;;;-0.89;97.27;100934.56;5051510;28;20032;-90
2021/12/12 05:20:44;;;;;;;29.85;16.40;;;;;;;-0.89;97.13;100943.97;5043093;28;20033;-89
2021/12/12 05:23:14;;;;;;;33.42;15.25;;;;;;;-0.89;96.72;100942.28;5036148;28;20032;-89
2021/12/12 05:25:55;;;;;;;36.75;17.50;;;;;;;-0.88;97.18;100946.56;5057345;28;20111;-92
2021/12/12 05:28:34;;;;;;;33.95;15.65;;;;;;;-0.87;97.11;100948.25;5047450;28;20051;-90
2021/12/12 05:31:04;;;;;;;34.42;15.48;;;;;;;-0.90;96.92;100948.28;5044439;28;20036;-90
2021/12/12 05:33:36;;;;;;;33.42;16.35;;;;;;;-0.90;97.29;100948.28;5033166;28;20033;-91
2021/12/12 05:36:13;;;;;;;31.35;15.57;;;;;;;-0.91;96.99;100956.88;5041113;28;20024;-91
2021/12/12 05:38:47;;;;;;;32.97;16.60;;;;;;;-0.98;96.47;100963.78;5026397;28;20041;-91
2021/12/12 05:41:18;;;;;;;26.80;15.13;;;;;;;-0.97;96.62;100956.91;5042886;28;20032;-92
2021/12/12 05:43:48;;;;;;;32.63;17.20;;;;;;;-1.00;96.68;100954.41;5037758;28;20040;-90
2021/12/12 05:46:19;;;;;;;28.13;15.50;;;;;;;-1.03;96.86;100947.53;5036155;28;20266;-90
2021/12/12 05:48:46;;;;;;;28.70;15.45;;;;;;;-1.04;96.94;100945.84;5039314;28;20052;-89
2021/12/12 05:51:19;;;;;;;31.60;15.80;;;;;;;-1.04;96.59;100939.81;5037275;28;20028;-89
2021/12/12 05:53:50;;;;;;;33.15;16.67;;;;;;;-1.02;97.18;100945.81;5050677;28;20044;-90
2021/12/12 05:56:20;;;;;;;31.75;15.15;;;;;;;-1.03;97.02;100944.97;5037978;28;20045;-90
2021/12/12 05:58:51;;;;;;;32.67;16.88;;;;;;;-1.02;97.20;100944.09;5023511;28;20083;-90
2021/12/12 06:01:26;;;;;;;33.60;15.65;;;;;;;-0.97;97.23;100944.91;5034004;28;20144;-91
2021/12/12 06:04:11;;;;;;;35.13;16.15;;;;;;;-0.97;97.00;100939.75;5028495;28;20124;-90
2021/12/12 06:06:48;;;;;;;33.10;16.40;;;;;;;-0.96;97.16;100953.50;5041763;28;20022;-89
2021/12/12 06:09:23;;;;;;;28.85;15.55;;;;;;;-1.02;96.98;100946.66;5031355;28;20034;-90
2021/12/12 06:11:52;;;;;;;31.30;16.15;;;;;;;-1.06;97.13;100944.16;5030976;28;20060;-90
2021/12/12 06:14:22;;;;;;;31.80;15.77;;;;;;;-1.06;97.16;100944.16;5024310;28;20094;-89
2021/12/12 06:16:49;;;;;;;29.10;14.80;;;;;;;-1.10;97.28;100947.63;5041879;28;20064;-91
2021/12/12 06:19:22;;;;;;;25.42;14.15;;;;;;;-1.14;96.98;100957.09;5044173;28;20037;-90
2021/12/12 06:21:59;;;;;;;27.88;14.48;;;;;;;-1.19;97.19;100963.97;5041681;28;20465;-90
2021/12/12 06:24:29;;;;;;;32.95;15.32;;;;;;;-1.22;97.40;100964.84;5035838;28;20064;-90
2021/12/12 06:29:56;;;;;;;26.95;14.82;;;;;;;-1.24;96.92;100953.72;5043709;28;20083;-91
2021/12/12 06:32:25;;;;;;;30.02;15.43;;;;;;;-1.23;97.39;100957.13;5050211;28;20041;-90
2021/12/12 06:34:54;;;;;;;;;;;;;;;-1.19;97.52;100958.81;5051732;28;20130;-90
2021/12/12 06:37:26;;;;;;;30.75;14.52;;;;;;;-1.20;97.17;100962.25;5053043;28;20003;-89
2021/12/12 06:40:02;;;;;;;26.48;13.90;;;;;;;-1.22;97.25;100964.84;5055033;28;20483;-90
2021/12/12 06:42:34;;;;;;;27.08;14.73;;;;;;;-1.24;97.28;100955.44;5043675;28;20025;-90
2021/12/12 06:45:04;;;;;;;27.95;13.77;;;;;;;-1.17;97.41;100959.66;5035644;28;20089;-89
2021/12/12 06:47:41;;;;;;;31.65;15.77;;;;;;;-1.03;98.37;100973.28;5053965;28;20110;-89
2021/12/12 06:50:09;;;;;;;27.40;14.23;;;;;;;-0.90;99.02;100975.75;5053590;28;20037;-89
2021/12/12 06:52:45;;;;;;;30.67;15.23;;;;;;;-0.83;98.80;100970.53;5055087;28;20037;-90
2021/12/12 06:55:13;;;;;;;36.33;16.58;;;;;;;-0.54;99.24;100969.41;5054975;28;20033;-90
2021/12/12 06:57:51;;;;;;;31.95;15.38;;;;;;;-0.36;97.98;100974.34;5045877;28;20432;-91
2021/12/12 07:00:25;;;;;;;25.67;13.88;;;;;;;-0.34;95.49;100972.59;5054154;28;20036;-89
2021/12/12 07:02:51;;;;;;;27.98;13.65;;;;;;;-0.37;95.94;100969.19;5054832;28;20053;-90
2021/12/12 07:05:28;;;;;;;29.10;13.85;;;;;;;-0.43;95.10;100977.88;5045859;28;20039;-90
2021/12/12 07:08:10;;;;;;;;;;;;;;;;;;;;;
2021/12/12 07:10:41;;;;;;;27.75;14.02;;;;;;;-0.51;94.85;100974.53;5059737;28;20549;-88
2021/12/12 07:13:07;;;;;;;25.50;14.15;;;;;;;-0.52;94.54;100989.13;5054182;28;20033;-85
2021/12/12 07:15:43;;;;;;;27.13;13.90;;;;;;;-0.54;94.67;100984.84;5046452;28;20339;-89
2021/12/12 07:18:21;;;;;;;;;;;;;;;;;;;;;
2021/12/12 07:20:50;;;;;;;29.13;12.52;;;;;;;-0.53;94.76;100984.81;5050534;28;20468;-90
2021/12/12 07:23:16;;;;;;;31.52;13.95;;;;;;;-0.50;94.77;100979.66;5044235;28;20067;-89
2021/12/12 07:25:52;;;;;;;29.30;13.95;;;;;;;-0.43;94.72;100979.59;5027601;28;20040;-89
2021/12/12 07:28:23;;;;;;;27.48;13.32;;;;;;;-0.40;94.29;100984.72;5041868;28;20040;-90
2021/12/12 07:30:49;;;;;;;24.40;13.48;;;;;;;-0.38;94.58;100976.09;5062477;28;20037;-90
2021/12/12 07:33:17;;;;;;;26.98;13.77;;;;;;;-0.27;93.77;100976.81;5053783;28;20114;-91
2021/12/12 07:35:57;;;;;;;;;;;;;;;;;;;;;
2021/12/12 07:38:24;;;;;;;30.27;14.75;;;;;;;-0.10;93.17;100976.63;5027103;28;20037;-90
2021/12/12 07:40:55;;;;;;;24.42;12.60;;;;;;;-0.02;92.90;100971.38;5043367;28;20037;-89
2021/12/12 07:43:23;;;;;;;22.08;12.25;;;;;;;-0.02;92.65;100968.81;5040499;28;20553;-90
2021/12/12 07:45:55;;;;;;;24.30;13.02;;;;;;;0.02;92.40;100978.19;5033260;28;20079;-91
2021/12/12 07:48:25;;;;;;;24.67;12.82;;;;;;;0.10;92.00;100983.25;5041177;28;20032;-90
2021/12/12 07:51:01;;;;;;;25.77;11.65;;;;;;;0.14;91.64;100983.19;5034061;28;20030;-90
2021/12/12 07:53:31;;;;;;;21.63;11.10;;;;;;;0.21;91.39;100978.81;5045396;28;20071;-90
2021/12/12 07:56:01;;;;;;;19.77;10.60;;;;;;;0.25;91.15;100983.06;5041972;28;20048;-89
2021/12/12 07:58:32;;;;;;;18.83;11.07;;;;;;;0.30;91.43;100977.81;5040249;28;20120;-91
2021/12/12 08:01:00;;;;;;;20.17;11.07;;;;;;;0.36;90.99;100977.75;5036375;28;20482;-90
2021/12/12 08:03:31;;;;;;;26.23;12.17;;;;;;;0.36;90.44;100980.34;5029178;28;20143;-90
2021/12/12 08:06:15;;;;;;;18.65;11.25;;;;;;;0.40;90.09;100988.00;5037286;28;20026;-91
2021/12/12 08:12:28;;;;;;;20.48;10.93;;;;;;;0.49;90.21;100987.03;4961772;28;20038;-91
2021/12/12 08:18:40;;;;;;;;;;;;;;;;;;;;;
2021/12/12 08:21:20;;;;;;;24.35;12.40;;;;;;;0.66;89.32;100972.13;4958374;29;20601;-90
2021/12/12 08:24:01;;;;;;;;;;;;;;;;;;;;;
2021/12/12 08:27:04;;;;;;;26.10;11.40;;;;;;;0.80;88.89;100971.94;4986407;28;20097;-91
2021/12/12 08:30:27;;;;;;;22.35;11.13;;;;;;;0.89;88.27;100976.09;4976787;28;20043;-91
2021/12/12 08:36:59;;;;;;;19.83;10.80;;;;;;;1.04;87.84;100968.13;4855485;29;20080;-89
2021/12/12 08:39:32;;;;;;;18.20;10.25;;;;;;;1.07;87.98;100962.88;4841834;29;20459;-89
2021/12/12 08:41:59;;;;;;;24.95;11.20;;;;;;;1.14;87.59;100966.22;4879405;29;20503;-88
2021/12/12 08:44:35;;;;;;;19.92;10.88;;;;;;;1.16;87.85;100965.31;4870753;29;20131;-89
2021/12/12 08:47:25;;;;;;;20.08;10.82;;;;;;;1.24;88.26;100961.75;4879060;29;20045;-87
2021/12/12 08:49:57;;;;;;;24.20;11.35;;;;;;;1.28;88.23;100961.66;4878343;29;20139;-87
2021/12/12 08:52:40;;;;;;;17.55;10.25;;;;;;;1.37;87.75;100965.81;4870789;29;20058;-88
2021/12/12 08:55:30;;;;;;;21.98;10.68;;;;;;;1.42;88.00;100966.59;4914948;29;20475;-89
2021/12/12 08:58:14;;;;;;;20.08;10.25;;;;;;;1.44;87.63;100964.81;4926660;29;20039;-87
2021/12/12 09:00:51;;;;;;;22.08;11.85;;;;;;;1.49;87.26;100963.03;4909276;29;20107;-89
2021/12/12 09:03:35;;;;;;;22.10;11.68;;;;;;;1.57;87.39;100968.03;4923556;29;20058;-89
2021/12/12 09:06:09;;;;;;;20.77;11.68;;;;;;;1.61;87.22;100959.34;4954534;28;20046;-88
2021/12/12 09:08:58;;;;;;;17.10;10.55;;;;;;;1.61;87.44;100964.50;4968982;28;20076;-90
2021/12/12 09:11:46;;;;;;;18.45;10.43;;;;;;;1.68;87.41;100961.78;5042439;28;20029;-90
2021/12/12 09:14:31;;;;;;;19.95;10.55;;;;;;;1.70;86.55;100965.16;5054944;28;20136;-90
2021/12/12 09:17:05;;;;;;;20.38;10.48;;;;;;;1.75;86.48;100966.84;5046663;28;20037;-89
2021/12/12 09:19:40;;;;;;;19.67;11.13;;;;;;;1.78;86.65;100965.03;5043804;28;20071;-90
2021/12/12 09:22:19;;;;;;;18.45;10.30;;;;;;;1.84;86.77;100954.56;5051850;28;20433;-90
2021/12/12 09:25:14;;;;;;;17.88;10.32;;;;;;;1.93;86.11;100958.72;5054587;28;20052;-88
2021/12/12 09:27:51;;;;;;;20.80;11.15;;;;;;;1.98;85.99;100958.63;5052592;28;20031;-89
2021/12/12 09:33:33;;;;;;;17.52;10.38;;;;;;;2.10;85.99;100953.19;5025134;28;20045;-89
2021/12/12 09:36:13;;;;;;;19.42;10.88;;;;;;;2.24;85.53;100951.16;5007883;28;20076;-86
2021/12/12 09:38:47;;;;;;;23.48;10.93;;;;;;;2.26;85.66;100964.88;5009624;28;20447;-90
2021/12/12 09:41:31;;;;;;;20.60;11.77;;;;;;;2.30;85.22;100960.50;5052039;28;20082;-88
2021/12/12 09:44:13;;;;;;;20.45;10.50;;;;;;;2.30;85.39;100957.91;5030754;28;20053;-90
2021/12/12 09:47:24;;;;;;;17.45;10.23;;;;;;;2.36;85.35;100953.44;5050082;28;20045;-89
2021/12/12 09:53:30;;;;;;;16.60;9.82;;;;;;;2.34;85.48;100939.72;5006413;28;22047;-89
2021/12/12 09:59:41;;;;;;;22.08;10.45;;;;;;;2.37;85.89;100937.06;5055595;28;19955;-90
2021/12/12 10:02:43;;;;;;;19.48;10.52;;;;;;;2.40;85.66;100928.34;4974151;28;20046;-87
2021/12/12 10:05:34;;;;;;;16.60;9.43;;;;;;;2.44;85.24;100929.97;4982536;28;20518;-88
2021/12/12 10:08:30;;;;;;;22.58;10.63;;;;;;;2.46;85.52;100919.63;4980684;28;20141;-89
2021/12/12 10:11:32;;;;;;;18.83;9.60;;;;;;;2.50;85.28;100914.31;4990223;28;20041;-89
2021/12/12 10:15:00;;;;;;;20.08;11.27;;;;;;;2.52;85.27;100922.91;4990831;28;20065;-89
2021/12/12 10:17:38;;;;;;;17.75;9.70;;;;;;;2.54;84.75;100928.03;4904365;29;20037;-89
2021/12/12 10:20:27;;;;;;;19.23;8.98;;;;;;;2.54;84.57;100915.94;4884939;29;20099;-89
2021/12/12 10:23:15;;;;;;;15.35;8.38;;;;;;;2.62;84.38;100913.19;4920191;29;20107;-89
2021/12/12 10:26:05;;;;;;;16.05;9.25;;;;;;;2.61;83.93;100901.13;4913657;29;20051;-89
2021/12/12 10:29:26;;;;;;;15.90;8.68;;;;;;;2.66;83.65;100904.44;4906806;29;20036;-88
2021/12/12 10:32:22;;;;;;;14.80;7.88;;;;;;;2.66;83.80;100904.44;4842971;29;20048;-88
2021/12/12 10:35:01;;;;;;;15.10;8.07;;;;;;;2.73;83.53;100907.72;4876204;29;20041;-90
2021/12/12 10:37:58;;;;;;;12.97;7.50;;;;;;;2.75;83.60;100900.78;4971404;28;20050;-90
2021/12/12 10:41:04;;;;;;;;;;;;;;;;;;;;;
2021/12/12 10:43:42;;;;;;;13.77;7.65;;;;;;;2.83;83.60;100893.69;4966769;28;20128;-87
2021/12/12 10:46:21;;;;;;;15.15;6.78;;;;;;;2.82;83.46;100899.75;4960606;28;20117;-88
2021/12/12 10:49:02;;;;;;;16.27;6.93;;;;;;;2.85;83.49;100895.31;4976499;28;20061;-88
2021/12/12 10:51:37;;;;;;;18.88;7.05;;;;;;;2.92;83.25;100885.66;4990617;28;20038;-88
2021/12/12 10:54:40;;;;;;;16.05;7.03;;;;;;;2.96;83.08;100892.47;5050408;28;20021;-89
2021/12/12 10:57:19;;;;;;;16.08;6.50;;;;;;;2.98;82.98;100895.03;5027390;28;20097;-90
2021/12/12 10:59:59;;;;;;;14.48;7.25;;;;;;;3.03;82.68;100903.53;5050915;28;20424;-89
2021/12/12 11:02:36;;;;;;;13.70;6.85;;;;;;;3.08;82.98;100902.53;5035275;28;20045;-89
2021/12/12 11:05:17;;;;;;;15.95;7.68;;;;;;;3.12;82.75;100896.38;5045172;28;20032;-89
2021/12/12 11:07:56;;;;;;;13.23;7.13;;;;;;;3.15;82.36;100893.69;5052075;28;20045;-89
2021/12/12 11:10:30;;;;;;;14.48;7.88;;;;;;;3.21;82.35;100890.09;5042948;28;20093;-90
2021/12/12 11:13:17;;;;;;;14.35;6.60;;;;;;;3.25;82.20;100885.66;5034795;28;20188;-89
2021/12/12 11:15:49;;;;;;;13.85;6.63;;;;;;;3.32;82.28;100894.97;5030524;28;20378;-90
2021/12/12 11:18:24;;;;;;;12.70;6.13;;;;;;;3.35;81.77;100894.91;5033752;28;20029;-89
2021/12/12 11:21:02;;;;;;;13.75;5.93;;;;;;;3.36;81.58;100900.03;5006088;28;20195;-88
2021/12/12 11:24:02;;;;;;;11.95;5.55;;;;;;;3.46;81.33;100902.38;5033988;28;20037;-92
2021/12/12 11:26:42;;;;;;;14.02;5.35;;;;;;;3.49;80.70;100905.75;5036547;28;20033;-91
2021/12/12 11:29:33;;;;;;;12.13;5.55;;;;;;;3.52;80.68;100903.06;5010410;28;20033;-92
2021/12/12 11:32:30;;;;;;;10.05;4.75;;;;;;;3.59;80.36;100899.38;5037420;28;20061;-92
2021/12/12 11:34:57;;;;;;;13.07;5.00;;;;;;;3.61;80.82;100891.59;5025120;28;20037;-90
2021/12/12 11:37:53;;;;;;;9.05;4.70;;;;;;;3.60;80.98;100892.47;5047135;28;20049;-92
2021/12/12 11:40:50;;;;;;;10.73;4.72;;;;;;;3.60;81.34;100877.78;5028955;28;20129;-90
2021/12/12 11:43:44;;;;;;;13.75;5.53;;;;;;;3.63;80.82;100885.47;5010188;28;20033;-91
2021/12/12 11:46:28;;;;;;;11.38;4.72;;;;;;;3.66;81.28;100888.84;5037847;28;20033;-90
2021/12/12 11:49:05;;;;;;;9.15;3.88;;;;;;;3.76;80.86;100874.72;5044025;28;20044;-91
2021/12/12 11:51:58;;;;;;;10.63;4.32;;;;;;;3.80;80.12;100881.53;5043551;28;20083;-91
2021/12/12 11:55:07;;;;;;;9.40;4.22;;;;;;;3.75;80.52;100871.28;5060448;28;20051;-90
2021/12/12 11:57:47;;;;;;;11.98;3.97;;;;;;;3.81;80.67;100865.91;4957483;29;20484;-90
2021/12/12 12:00:52;;;;;;;;;;;;;;;;;;;;;
2021/12/12 12:03:57;;;;;;;9.65;4.43;;;;;;;3.91;80.88;100863.03;4951050;28;20682;-91
2021/12/12 12:10:44;;;;;;;9.95;3.75;;;;;;;4.08;80.45;100864.25;4878686;29;20033;-89
2021/12/12 12:13:55;;;;;;;11.05;4.75;;;;;;;4.06;80.15;100854.78;4880612;29;20176;-92
2021/12/12 12:16:47;;;;;;;11.80;4.50;;;;;;;4.06;80.27;100845.25;4878545;29;20081;-90
2021/12/12 12:19:42;;;;;;;13.48;4.97;;;;;;;4.04;80.71;100848.78;4875804;29;20132;-90
2021/12/12 12:22:11;;;;;;;8.77;3.78;;;;;;;4.02;80.96;100848.00;4847014;29;20064;-91
2021/12/12 12:25:14;;;;;;;12.15;4.10;;;;;;;3.99;81.03;100845.50;4863902;29;20034;-90
2021/12/12 12:27:53;;;;;;;;;;;;;;;;;;;;;
2021/12/12 12:30:54;;;;;;;7.78;3.90;;;;;;;4.03;81.54;100841.91;4938415;29;20493;-90
2021/12/12 12:34:14;;;;;;;10.07;3.85;;;;;;;4.07;82.10;100838.31;4931453;29;20352;-91
2021/12/12 12:37:21;;;;;;;15.02;4.00;;;;;;;4.09;81.47;100826.16;4860045;29;20071;-91
2021/12/12 12:40:26;;;;;;;9.20;4.20;;;;;;;4.05;82.07;100832.34;4910283;29;20044;-89
2021/12/12 12:43:29;;;;;;;11.60;4.72;;;;;;;4.01;82.55;100816.03;4912917;29;20386;-90
2021/12/12 12:46:33;;;;;;;11.77;4.25;;;;;;;4.02;82.60;100816.88;4966324;28;20061;-90
2021/12/12 12:49:35;;;;;;;13.20;4.10;;;;;;;4.06;82.60;100811.53;5023186;28;20094;-90
2021/12/12 12:52:41;;;;;;;11.88;4.43;;;;;;;4.05;83.28;100801.22;5016895;28;20044;-90
2021/12/12 12:56:02;;;;;;;12.77;4.72;;;;;;;4.05;82.84;100801.22;5040418;28;20032;-89
2021/12/12 12:58:52;;;;;;;13.18;4.68;;;;;;;4.04;82.96;100787.38;4995006;28;20055;-89
2021/12/12 13:01:33;;;;;;;10.93;4.82;;;;;;;4.08;82.77;100788.13;5061573;28;20037;-90
2021/12/12 13:04:04;;;;;;;10.98;4.63;;;;;;;4.08;83.03;100788.97;5053288;28;20430;-91
2021/12/12 13:07:15;;;;;;;13.15;4.90;;;;;;;4.11;83.64;100791.44;5053102;28;20025;-89
2021/12/12 13:10:04;;;;;;;12.80;5.00;;;;;;;4.10;83.78;100784.56;5040618;28;20047;-90
2021/12/12 13:12:48;;;;;;;13.50;5.55;;;;;;;4.07;83.88;100782.06;5054637;28;20038;-89
2021/12/12 13:15:40;;;;;;;12.27;4.70;;;;;;;4.08;83.81;100786.38;5053542;28;20047;-91
2021/12/12 13:18:34;;;;;;;18.77;4.65;;;;;;;4.08;84.08;100783.78;5043777;28;20044;-90